TimeEDT,TemperatureF,Dew PointF,Humidity,Sea Level PressureIn,VisibilityMPH,Wind Direction,Wind SpeedMPH,Gust SpeedMPH,PrecipitationIn,Events,Conditions,WindDirDegrees,DateUTC
12:15 AM,41.9,41.9,100,30.28,10.0,North,-9999.0,-,N/A,,Clear,0,2012-10-12 04:15:00
12:35 AM,41.4,41.4,100,30.28,10.0,North,-9999.0,-,N/A,,Clear,0,2012-10-12 04:35:00
12:55 AM,41.2,41.2,100,30.28,10.0,North,-9999.0,-,N/A,,Clear,0,2012-10-12 04:55:00
1:15 AM,40.6,40.6,100,30.29,10.0,North,-9999.0,-,N/A,,Clear,0,2012-10-12 05:15:00
1:35 AM,40.5,40.5,100,30.29,10.0,North,-9999.0,-,N/A,,Clear,0,2012-10-12 05:35:00
1:55 AM,40.1,40.1,100,30.30,10.0,North,-9999.0,-,N/A,,Clear,0,2012-10-12 05:55:00
2:15 AM,39.7,39.7,100,30.30,10.0,North,-9999.0,-,N/A,,Clear,0,2012-10-12 06:15:00
2:35 AM,39.7,39.7,100,30.30,10.0,North,-9999.0,-,N/A,,Clear,0,2012-10-12 06:35:00
2:55 AM,39.6,39.6,100,30.30,10.0,North,-9999.0,-,N/A,,Clear,0,2012-10-12 06:55:00
4:15 AM,38.7,38.7,100,30.29,10.0,North,-9999.0,-,N/A,,Clear,0,2012-10-12 08:15:00
4:35 AM,38.3,38.3,100,30.29,10.0,North,-9999.0,-,N/A,,Clear,0,2012-10-12 08:35:00
4:55 AM,38.1,38.1,100,30.29,10.0,North,-9999.0,-,N/A,,Clear,0,2012-10-12 08:55:00
5:15 AM,37.9,37.9,100,30.30,7.0,North,-9999.0,-,N/A,,Clear,0,2012-10-12 09:15:00
5:35 AM,37.6,37.6,100,30.30,10.0,North,-9999.0,-,N/A,,Clear,0,2012-10-12 09:35:00
5:55 AM,38.1,38.1,100,30.30,10.0,North,-9999.0,-,N/A,,Scattered Clouds,0,2012-10-12 09:55:00
6:15 AM,37.8,37.8,100,30.30,4.0,North,-9999.0,-,N/A,,Scattered Clouds,0,2012-10-12 10:15:00
6:35 AM,37.2,37.2,100,30.31,10.0,North,-9999.0,-,N/A,,Scattered Clouds,0,2012-10-12 10:35:00
6:55 AM,37.0,37.0,100,30.32,10.0,North,-9999.0,-,N/A,,Scattered Clouds,0,2012-10-12 10:55:00
7:15 AM,38.5,38.5,100,30.32,10.0,North,-9999.0,-,N/A,,Mostly Cloudy,0,2012-10-12 11:15:00
7:35 AM,39.0,39.0,100,30.32,10.0,North,-9999.0,-,N/A,,Overcast,0,2012-10-12 11:35:00
7:55 AM,39.6,39.6,100,30.33,5.0,North,-9999.0,-,N/A,,Overcast,0,2012-10-12 11:55:00
8:15 AM,40.5,40.5,100,30.33,3.0,North,-9999.0,-,N/A,,Overcast,0,2012-10-12 12:15:00
8:35 AM,40.3,40.3,100,30.33,2.5,North,-9999.0,-,N/A,,Overcast,0,2012-10-12 12:35:00
8:55 AM,41.5,41.5,100,30.33,10.0,North,-9999.0,-,N/A,,Scattered Clouds,0,2012-10-12 12:55:00
9:15 AM,44.1,44.1,100,30.35,10.0,North,-9999.0,-,N/A,,Clear,0,2012-10-12 13:15:00
9:35 AM,45.9,45.9,100,30.36,10.0,North,-9999.0,-,N/A,,Clear,0,2012-10-12 13:35:00
9:55 AM,48.7,47.7,96,30.35,10.0,North,-9999.0,-,N/A,,Clear,0,2012-10-12 13:55:00
10:15 AM,52.0,48.9,89,30.35,10.0,North,-9999.0,-,N/A,,Clear,0,2012-10-12 14:15:00
10:55 AM,56.5,47.3,71,30.36,10.0,North,-9999.0,-,N/A,,Clear,0,2012-10-12 14:55:00
11:15 AM,59.2,47.8,66,30.36,10.0,North,-9999.0,-,N/A,,Clear,0,2012-10-12 15:15:00
11:35 AM,60.1,45.5,59,30.35,10.0,North,-9999.0,-,N/A,,Clear,0,2012-10-12 15:35:00
12:15 PM,61.9,44.2,52,30.34,10.0,North,-9999.0,-,N/A,,Clear,0,2012-10-12 16:15:00
12:35 PM,63.1,41.9,46,30.34,10.0,North,-9999.0,-,N/A,,Scattered Clouds,0,2012-10-12 16:35:00
12:55 PM,63.9,43.2,47,30.34,10.0,North,-9999.0,-,N/A,,Clear,0,2012-10-12 16:55:00
1:15 PM,64.6,39.9,40,30.33,10.0,North,-9999.0,-,N/A,,Clear,0,2012-10-12 17:15:00
1:35 PM,64.9,40.1,40,30.33,10.0,North,-9999.0,-,N/A,,Clear,0,2012-10-12 17:35:00
1:55 PM,65.3,40.3,40,30.32,10.0,North,-9999.0,-,N/A,,Clear,0,2012-10-12 17:55:00
2:35 PM,66.2,40.3,39,30.33,10.0,North,-9999.0,-,N/A,,Clear,0,2012-10-12 18:35:00
2:55 PM,66.6,40.3,38,30.32,10.0,North,-9999.0,-,N/A,,Clear,0,2012-10-12 18:55:00
3:35 PM,67.3,41.7,39,30.32,10.0,North,-9999.0,-,N/A,,Clear,0,2012-10-12 19:35:00
3:55 PM,67.1,40.1,37,30.32,10.0,North,-9999.0,-,N/A,,Clear,0,2012-10-12 19:55:00
4:15 PM,67.1,41.5,39,30.33,10.0,North,-9999.0,-,N/A,,Clear,0,2012-10-12 20:15:00
4:55 PM,65.1,41.7,42,30.32,10.0,North,-9999.0,-,N/A,,Clear,0,2012-10-12 20:55:00
5:15 PM,63.1,42.6,47,30.32,10.0,North,-9999.0,-,N/A,,Clear,0,2012-10-12 21:15:00
5:35 PM,60.1,46.6,61,30.33,10.0,North,-9999.0,-,N/A,,Clear,0,2012-10-12 21:35:00
5:55 PM,58.5,47.3,66,30.34,10.0,North,-9999.0,-,N/A,,Clear,0,2012-10-12 21:55:00
6:15 PM,55.8,47.7,74,30.34,10.0,North,-9999.0,-,N/A,,Clear,0,2012-10-12 22:15:00
6:35 PM,54.1,48.0,80,30.35,10.0,North,-9999.0,-,N/A,,Clear,0,2012-10-12 22:35:00
7:15 PM,51.1,47.3,87,30.35,10.0,North,-9999.0,-,N/A,,Clear,0,2012-10-12 23:15:00
7:55 PM,49.1,46.9,92,30.36,10.0,North,-9999.0,-,N/A,,Clear,0,2012-10-12 23:55:00
8:15 PM,48.4,46.6,93,30.38,10.0,North,-9999.0,-,N/A,,Clear,0,2012-10-13 00:15:00
8:35 PM,47.8,46.2,94,30.38,10.0,North,-9999.0,-,N/A,,Clear,0,2012-10-13 00:35:00